Time;durP1;ratioP1;P1;durP2;ratioP2;P2;SDS_P1;SDS_P2;PMS_P1;PMS_P2;Temp;Humidity;BMP_temperature;BMP_pressure;BME280_temperature;BME280_humidity;BME280_pressure;Samples;Min_cycle;Max_cycle;Signal;HPM_P1;HPM_P2
2023/08/08 00:17:21;;;;;;;4.40;2.03;;;;;;;;;;6228874;22;20647;-89
2023/08/08 00:20:26;;;;;;;3.92;1.90;;;;;;;;;;6213807;23;20177;-91
2023/08/08 00:23:32;;;;;;;3.38;2.10;;;;;;;;;;6213013;23;20167;-91
2023/08/08 00:26:37;;;;;;;5.38;2.03;;;;;;;;;;6214332;23;20208;-91
2023/08/08 00:29:42;;;;;;;5.82;1.77;;;;;;;;;;6213802;23;20158;-89
2023/08/08 00:32:49;;;;;;;4.43;1.98;;;;;;;;;;6214705;23;20211;-89
2023/08/08 00:35:54;;;;;;;3.70;1.90;;;;;;;;;;6214918;23;20200;-89
2023/08/08 00:38:59;;;;;;;3.70;1.95;;;;;;;;;;6214194;23;20167;-91
2023/08/08 00:42:05;;;;;;;4.55;1.92;;;;;;;;;;6213911;23;20248;-89
2023/08/08 00:45:11;;;;;;;5.80;2.40;;;;;;;;;;6215191;23;20163;-92
2023/08/08 00:48:19;;;;;;;8.73;2.00;;;;;;;;;;6215192;23;20175;-90
2023/08/08 00:52:03;;;;;;;4.30;2.10;;;;;;;;;;6216154;23;20168;-89
2023/08/08 00:55:09;;;;;;;4.80;2.13;;;;;;;;;;6216201;23;20167;-92
2023/08/08 00:58:15;;;;;;;7.28;2.33;;;;;;;;;;6214181;23;20166;-92
2023/08/08 01:01:20;;;;;;;5.95;2.13;;;;;;;;;;6214349;23;20244;-88
2023/08/08 01:04:28;;;;;;;8.60;2.20;;;;;;;;;;6215255;23;20190;-91
2023/08/08 01:07:38;;;;;;;6.13;2.20;;;;;;;;;;6215619;23;20215;-91
2023/08/08 01:10:43;;;;;;;8.70;2.45;;;;;;;;;;6215651;23;20220;-93
2023/08/08 01:13:48;;;;;;;6.72;2.30;;;;;;;;;;6215313;23;20166;-91
2023/08/08 01:16:57;;;;;;;6.65;2.38;;;;;;;;;;6214351;23;20202;-91
2023/08/08 01:20:07;;;;;;;4.90;2.47;;;;;;;;;;6213965;23;20171;-92
2023/08/08 01:23:16;;;;;;;7.13;2.45;;;;;;;;;;6215186;23;20171;-91
2023/08/08 01:26:22;;;;;;;5.78;2.40;;;;;;;;;;6215098;23;20439;-94
2023/08/08 01:29:28;;;;;;;3.70;2.30;;;;;;;;;;6214919;23;20171;-91
2023/08/08 01:32:33;;;;;;;3.25;2.22;;;;;;;;;;6214406;23;20163;-92
2023/08/08 01:35:40;;;;;;;6.40;2.33;;;;;;;;;;6216282;23;20170;-91
2023/08/08 01:38:48;;;;;;;5.20;2.08;;;;;;;;;;6213210;23;20246;-90
2023/08/08 01:41:55;;;;;;;5.63;2.35;;;;;;;;;;6213936;23;20203;-90
2023/08/08 01:45:00;;;;;;;4.50;2.33;;;;;;;;;;6214593;23;20215;-89
2023/08/08 01:48:10;;;;;;;5.18;2.17;;;;;;;;;;6215154;23;20479;-91
2023/08/08 01:51:19;;;;;;;4.25;2.15;;;;;;;;;;6215331;23;20234;-92
2023/08/08 01:54:28;;;;;;;7.32;1.98;;;;;;;;;;6214214;23;20662;-90
2023/08/08 01:57:35;;;;;;;4.28;2.30;;;;;;;;;;6213750;23;20175;-90
2023/08/08 02:00:43;;;;;;;4.43;1.90;;;;;;;;;;6211869;23;20195;-90
2023/08/08 02:03:49;;;;;;;5.10;1.88;;;;;;;;;;6213582;23;20188;-91
2023/08/08 02:06:55;;;;;;;2.75;2.00;;;;;;;;;;6214239;23;20214;-94
2023/08/08 02:10:00;;;;;;;5.88;1.95;;;;;;;;;;6212783;23;20547;-91
2023/08/08 02:13:06;;;;;;;8.80;2.30;;;;;;;;;;6233675;23;20175;-90
2023/08/08 02:16:11;;;;;;;5.95;1.98;;;;;;;;;;6215199;23;20237;-90
2023/08/08 02:19:17;;;;;;;6.68;2.28;;;;;;;;;;6214578;23;20166;-93
2023/08/08 02:22:22;;;;;;;6.60;2.10;;;;;;;;;;6214501;23;20194;-92
2023/08/08 02:25:27;;;;;;;5.45;2.10;;;;;;;;;;6215549;23;20167;-89
2023/08/08 02:28:34;;;;;;;4.38;1.90;;;;;;;;;;6213318;23;20163;-90
2023/08/08 02:31:39;;;;;;;5.32;2.45;;;;;;;;;;6215098;23;20154;-91
2023/08/08 02:34:45;;;;;;;5.28;2.13;;;;;;;;;;6215678;23;20250;-90
2023/08/08 02:37:50;;;;;;;4.65;2.00;;;;;;;;;;6214893;23;20243;-90
2023/08/08 02:40:58;;;;;;;6.28;2.50;;;;;;;;;;6214719;23;20686;-91
2023/08/08 02:44:05;;;;;;;6.88;2.15;;;;;;;;;;6213505;23;20155;-90
2023/08/08 02:47:10;;;;;;;6.68;2.58;;;;;;;;;;6214033;23;20249;-90
2023/08/08 02:50:15;;;;;;;7.97;2.88;;;;;;;;;;6214320;23;20527;-92
2023/08/08 02:56:54;;;;;;;6.60;2.85;;;;;;;;;;6231731;23;20169;-90
2023/08/08 03:00:01;;;;;;;5.43;2.83;;;;;;;;;;6214809;23;20187;-90
2023/08/08 03:03:11;;;;;;;5.25;2.90;;;;;;;;;;6214610;23;20207;-88
2023/08/08 03:06:16;;;;;;;8.70;2.90;;;;;;;;;;6214072;23;20495;-92
2023/08/08 03:09:22;;;;;;;4.43;2.78;;;;;;;;;;6212833;23;20179;-92
2023/08/08 03:12:27;;;;;;;7.55;2.65;;;;;;;;;;6212589;23;20175;-89
2023/08/08 03:15:35;;;;;;;6.50;2.63;;;;;;;;;;6213767;23;20198;-90
2023/08/08 03:18:42;;;;;;;9.73;2.65;;;;;;;;;;6213493;23;20614;-91
2023/08/08 03:21:47;;;;;;;4.90;2.13;;;;;;;;;;6213373;23;20183;-90
2023/08/08 03:24:52;;;;;;;3.47;2.20;;;;;;;;;;6214017;23;20162;-89
2023/08/08 03:27:58;;;;;;;3.42;2.38;;;;;;;;;;6213019;23;20234;-88
2023/08/08 03:31:04;;;;;;;5.32;2.53;;;;;;;;;;6214033;23;20171;-89
2023/08/08 03:34:12;;;;;;;5.65;2.67;;;;;;;;;;6214442;23;20162;-89
2023/08/08 03:37:18;;;;;;;3.53;2.40;;;;;;;;;;6213939;23;20234;-90
2023/08/08 03:40:23;;;;;;;3.42;2.10;;;;;;;;;;6213688;23;20278;-90
2023/08/08 03:43:28;;;;;;;3.67;2.08;;;;;;;;;;6212843;23;20167;-91
2023/08/08 03:46:35;;;;;;;4.82;2.20;;;;;;;;;;6214438;23;20199;-91
2023/08/08 03:49:41;;;;;;;3.72;1.80;;;;;;;;;;6213451;23;20235;-91
2023/08/08 03:52:50;;;;;;;5.10;2.00;;;;;;;;;;6215441;23;20175;-91
2023/08/08 17:59:45;;;;;;;4.45;2.70;;;;;;;;;;6214053;22;20347;-92
2023/08/08 18:03:18;;;;;;;9.18;2.03;;;;;;;;;;6213903;23;20202;-90
2023/08/08 18:06:23;;;;;;;8.68;3.20;;;;;;;;;;6212765;23;20171;-89
2023/08/08 18:09:29;;;;;;;6.88;3.05;;;;;;;;;;6213240;23;20167;-89
2023/08/08 18:12:37;;;;;;;7.82;2.75;;;;;;;;;;6215773;23;20171;-90
2023/08/08 18:15:44;;;;;;;8.23;3.20;;;;;;;;;;6213366;23;20242;-90
2023/08/08 18:18:49;;;;;;;4.82;2.15;;;;;;;;;;6210845;22;20167;-91
2023/08/08 18:21:55;;;;;;;9.00;2.83;;;;;;;;;;6214663;23;20191;-92
2023/08/08 18:25:07;;;;;;;10.00;2.45;;;;;;;;;;6231673;23;20168;-89
2023/08/08 18:28:12;;;;;;;6.80;2.33;;;;;;;;;;6211909;23;20737;-92
2023/08/08 18:31:19;;;;;;;3.30;1.98;;;;;;;;;;6232678;22;20156;-93
2023/08/08 18:34:25;;;;;;;9.27;2.67;;;;;;;;;;6214200;22;20178;-92
2023/08/08 18:37:30;;;;;;;5.75;2.20;;;;;;;;;;6231865;23;20155;-93
2023/08/08 18:40:36;;;;;;;10.93;2.67;;;;;;;;;;6212472;23;20187;-90
2023/08/08 18:43:41;;;;;;;6.18;2.33;;;;;;;;;;6228882;23;20175;-92
2023/08/08 18:46:49;;;;;;;7.10;3.10;;;;;;;;;;6212503;22;20169;-87
2023/08/08 18:49:53;;;;;;;14.15;3.40;;;;;;;;;;6212759;23;20181;-91
2023/08/08 18:52:58;;;;;;;5.35;2.42;;;;;;;;;;6212394;23;20249;-90
2023/08/08 18:56:03;;;;;;;8.45;2.40;;;;;;;;;;6210538;23;20206;-89
2023/08/08 18:59:08;;;;;;;7.68;2.65;;;;;;;;;;6207281;23;20171;-92
2023/08/08 19:02:15;;;;;;;7.38;2.78;;;;;;;;;;6211087;23;20195;-89
2023/08/08 19:05:21;;;;;;;5.75;2.65;;;;;;;;;;6208824;22;20238;-91
2023/08/08 19:08:26;;;;;;;10.02;2.92;;;;;;;;;;6212879;23;20669;-94
2023/08/08 19:11:31;;;;;;;9.98;3.53;;;;;;;;;;6209338;23;20167;-92
2023/08/08 19:14:36;;;;;;;4.13;2.50;;;;;;;;;;6210914;23;20605;-89
2023/08/08 19:17:43;;;;;;;9.38;2.85;;;;;;;;;;6211537;23;20166;-88
2023/08/08 19:20:48;;;;;;;4.63;2.72;;;;;;;;;;6213050;23;20171;-91
2023/08/08 19:23:53;;;;;;;5.32;3.20;;;;;;;;;;6212802;23;20227;-90
2023/08/08 19:26:59;;;;;;;9.10;3.20;;;;;;;;;;6212592;23;20618;-91
2023/08/08 19:30:05;;;;;;;8.18;3.00;;;;;;;;;;6214042;23;20707;-90
2023/08/08 19:33:12;;;;;;;7.03;2.80;;;;;;;;;;6213439;23;20171;-93
2023/08/08 19:36:17;;;;;;;5.65;2.60;;;;;;;;;;6213238;23;20170;-90
2023/08/08 19:39:22;;;;;;;5.57;3.40;;;;;;;;;;6215235;22;20195;-91
2023/08/08 19:42:28;;;;;;;5.88;2.88;;;;;;;;;;6214066;23;20519;-91
2023/08/08 19:45:33;;;;;;;12.05;3.03;;;;;;;;;;6212878;23;20166;-88
2023/08/08 19:48:49;;;;;;;6.80;3.45;;;;;;;;;;6222039;22;20159;-88
2023/08/08 19:52:01;;;;;;;10.60;3.50;;;;;;;;;;6214001;23;20187;-91
2023/08/08 19:55:08;;;;;;;8.35;3.40;;;;;;;;;;6221603;23;20172;-90
2023/08/08 19:58:13;;;;;;;10.20;3.33;;;;;;;;;;6212074;23;20669;-91
2023/08/08 20:01:20;;;;;;;10.02;3.67;;;;;;;;;;6213086;23;20203;-92
2023/08/08 20:04:27;;;;;;;23.40;6.38;;;;;;;;;;6213309;22;20174;-89
2023/08/08 20:07:33;;;;;;;10.98;3.38;;;;;;;;;;6215790;22;20206;-94
2023/08/08 20:10:37;;;;;;;5.85;2.88;;;;;;;;;;6217789;22;20163;-89
2023/08/08 20:13:43;;;;;;;6.60;3.35;;;;;;;;;;6216980;23;20225;-88
2023/08/08 20:16:48;;;;;;;4.15;2.63;;;;;;;;;;6220352;22;20155;-89
2023/08/08 20:19:55;;;;;;;10.70;4.28;;;;;;;;;;6214528;22;20230;-91
2023/08/08 20:23:01;;;;;;;4.13;2.92;;;;;;;;;;6216866;23;20211;-90
2023/08/08 20:26:09;;;;;;;6.35;3.30;;;;;;;;;;6215737;22;20163;-92
2023/08/08 20:29:15;;;;;;;8.00;2.90;;;;;;;;;;6215085;23;20162;-90
2023/08/08 20:32:20;;;;;;;8.80;3.05;;;;;;;;;;6214376;22;20159;-91
2023/08/08 20:35:27;;;;;;;9.32;3.85;;;;;;;;;;6216095;22;20174;-91
2023/08/08 20:38:33;;;;;;;11.82;3.15;;;;;;;;;;6216939;23;20170;-95
2023/08/08 20:41:38;;;;;;;7.43;2.70;;;;;;;;;;6215190;22;20170;-93
2023/08/08 20:44:44;;;;;;;10.43;3.47;;;;;;;;;;6218335;23;20210;-90
2023/08/08 20:47:50;;;;;;;5.82;2.45;;;;;;;;;;6217977;23;20179;-91
2023/08/08 20:51:15;;;;;;;5.50;3.20;;;;;;;;;;6217886;23;20220;-93
2023/08/08 20:54:20;;;;;;;6.50;3.47;;;;;;;;;;6218275;22;20196;-91
2023/08/08 20:57:27;;;;;;;4.85;3.00;;;;;;;;;;6217546;22;20166;-92
2023/08/08 21:00:33;;;;;;;7.63;2.95;;;;;;;;;;6223221;23;20210;-90
2023/08/08 21:03:39;;;;;;;6.68;2.80;;;;;;;;;;6234457;23;20248;-92
2023/08/08 21:06:46;;;;;;;8.05;3.03;;;;;;;;;;6235704;23;20167;-92
2023/08/08 21:09:52;;;;;;;5.97;3.15;;;;;;;;;;6235971;23;20170;-91
2023/08/08 21:12:58;;;;;;;7.65;3.65;;;;;;;;;;6235935;23;20548;-92
2023/08/08 21:16:05;;;;;;;9.93;3.50;;;;;;;;;;6236107;23;20179;-91
2023/08/08 21:19:10;;;;;;;8.30;2.65;;;;;;;;;;6235586;23;20171;-91
2023/08/08 21:22:18;;;;;;;7.35;3.10;;;;;;;;;;6235294;23;20208;-92
2023/08/08 21:25:24;;;;;;;6.43;3.42;;;;;;;;;;6235834;23;20162;-91
2023/08/08 21:28:29;;;;;;;4.93;2.88;;;;;;;;;;6235385;23;20168;-92
2023/08/08 21:31:35;;;;;;;8.02;3.08;;;;;;;;;;6234886;22;20151;-92
2023/08/08 21:34:41;;;;;;;6.63;3.15;;;;;;;;;;6233756;23;20263;-92
2023/08/08 21:37:47;;;;;;;8.00;3.20;;;;;;;;;;6234079;23;20158;-92
2023/08/08 21:40:52;;;;;;;11.60;3.40;;;;;;;;;;6235089;23;20167;-93
2023/08/08 21:43:58;;;;;;;4.70;2.92;;;;;;;;;;6232673;23;20207;-91
2023/08/08 21:47:03;;;;;;;8.20;3.13;;;;;;;;;;6234325;23;20175;-93
2023/08/08 21:50:09;;;;;;;7.30;3.40;;;;;;;;;;6234198;23;20159;-92
2023/08/08 21:53:16;;;;;;;9.02;3.42;;;;;;;;;;6233991;23;20166;-92
2023/08/08 21:56:21;;;;;;;7.32;3.30;;;;;;;;;;6232656;23;20159;-91
2023/08/08 21:59:27;;;;;;;10.80;3.10;;;;;;;;;;6232963;22;20187;-92
2023/08/08 22:02:58;;;;;;;5.13;3.08;;;;;;;;;;6216403;22;20197;-93
2023/08/08 22:06:05;;;;;;;8.73;3.20;;;;;;;;;;6216705;23;20171;-90
2023/08/08 22:09:13;;;;;;;9.15;3.30;;;;;;;;;;6214728;23;20163;-93
2023/08/08 22:12:22;;;;;;;6.90;2.83;;;;;;;;;;6215696;22;20191;-90
2023/08/08 22:15:28;;;;;;;10.95;3.35;;;;;;;;;;6216905;22;20168;-90
2023/08/08 22:18:34;;;;;;;6.85;2.95;;;;;;;;;;6215910;23;20155;-91
2023/08/08 22:21:40;;;;;;;8.30;3.10;;;;;;;;;;6218392;23;20208;-92
2023/08/08 22:24:47;;;;;;;5.53;2.90;;;;;;;;;;6215589;23;20183;-91
2023/08/08 22:27:52;;;;;;;10.93;3.42;;;;;;;;;;6216889;22;20155;-93
2023/08/08 22:30:58;;;;;;;8.02;3.35;;;;;;;;;;6215346;22;20239;-92
2023/08/08 22:34:03;;;;;;;8.57;2.97;;;;;;;;;;6216325;23;20159;-91
2023/08/08 22:37:08;;;;;;;5.05;3.20;;;;;;;;;;6215351;23;20171;-91
2023/08/08 22:40:15;;;;;;;8.63;3.13;;;;;;;;;;6216267;23;20215;-92
2023/08/08 22:43:21;;;;;;;9.38;3.58;;;;;;;;;;6215612;22;20195;-93
2023/08/08 22:46:27;;;;;;;8.68;3.00;;;;;;;;;;6215397;23;20175;-91
2023/08/08 22:49:32;;;;;;;8.18;2.95;;;;;;;;;;6216166;23;20187;-92
2023/08/08 22:52:38;;;;;;;11.38;3.38;;;;;;;;;;6215511;23;20207;-93
2023/08/08 22:55:45;;;;;;;7.00;3.45;;;;;;;;;;6217087;23;20171;-91
2023/08/08 22:58:51;;;;;;;11.77;5.95;;;;;;;;;;6215719;22;20183;-91
2023/08/08 23:01:57;;;;;;;8.82;3.75;;;;;;;;;;6215570;22;20611;-91
2023/08/08 23:05:02;;;;;;;7.43;3.20;;;;;;;;;;6218284;23;20162;-90
2023/08/08 23:08:10;;;;;;;6.50;2.85;;;;;;;;;;6218713;23;20223;-91
2023/08/08 23:11:17;;;;;;;10.60;3.28;;;;;;;;;;6218417;23;20171;-91
2023/08/08 23:14:23;;;;;;;9.13;3.10;;;;;;;;;;6213468;23;20178;-92
2023/08/08 23:17:28;;;;;;;6.43;3.40;;;;;;;;;;6214477;23;20170;-93
2023/08/08 23:20:34;;;;;;;9.48;3.13;;;;;;;;;;6215111;23;20167;-90
2023/08/08 23:23:39;;;;;;;6.57;3.33;;;;;;;;;;6214878;23;20191;-92
2023/08/08 23:26:47;;;;;;;10.35;3.30;;;;;;;;;;6214195;23;20254;-93
2023/08/08 23:29:53;;;;;;;11.77;4.03;;;;;;;;;;6213334;23;20198;-91
2023/08/08 23:32:58;;;;;;;6.97;3.70;;;;;;;;;;6213050;22;20155;-93
2023/08/08 23:36:03;;;;;;;9.68;3.67;;;;;;;;;;6213390;22;20170;-91
2023/08/08 23:39:10;;;;;;;9.00;3.58;;;;;;;;;;6214297;23;20243;-94
2023/08/08 23:42:17;;;;;;;6.25;3.20;;;;;;;;;;6212590;23;20172;-91
2023/08/08 23:45:22;;;;;;;9.75;4.03;;;;;;;;;;6213911;23;20171;-90
2023/08/08 23:48:27;;;;;;;5.70;3.00;;;;;;;;;;6212852;22;20178;-92
2023/08/08 23:51:35;;;;;;;11.45;3.47;;;;;;;;;;6214524;22;20662;-91
2023/08/08 23:54:41;;;;;;;8.43;3.80;;;;;;;;;;6212131;23;20171;-92
2023/08/08 23:57:47;;;;;;;7.00;3.40;;;;;;;;;;6213280;23;20171;-92
